Pagrindinis puslapis
METAR-TAF:

METAR-TAF

Oro uostai :

Udinė, Italija

platuma: 45-59N, ilguma: 013-02E, Aukštis: 51 m

Dabartinis oras

Ataskaita buvo paskelbta 7 valandos ir 59 minutes, ne 14:55 UTC
Vėjas 3 kt iš Rytų
Temperatūra 10°C
Drėgmė 71%
Slėgis 1018 hPa
Matomumas 10 km arba daugiau
Išsisklaidę debesys ne aukštis 2000 ft
Su prošvaistėmis ne aukštis 2500 ft

METAR: LIPI 271455Z 10003KT 9999 SCT020 BKN025 10/05 Q1018 RMK OVC VIS MIN 9999 WIND THR06 15002KT WIND THR24 10003KT BLU

Laikas: 23:54 (22:54 UTC)

Prognozė

Ataskaita buvo paskelbta 8 valandos ir 54 minutes, ne 14:00 UTC
Prognozė galioja nuo 27 metu 15 UTC su 27 metu 24 UTC
Vėjas 3 kt nuo kintamojo kryptimis
Matomumas 10 km arba daugiau
Išsisklaidę debesys ne aukštis 1500 ft
Su prošvaistėmis ne aukštis 2000 ft
Laikinai
nuo 27 metu 18 UTC su 27 metu 24 UTC
Matomumas: 5000 m
Su prošvaistėmis ne aukštis 1000 ft
rūkana

TAF: LIPI 271400Z 2715/2724 VRB03KT 9999 SCT015 BKN020 TEMPO 2718/2724 5000 BR BKN010

Orai ataskaitas ir orų prognozės (METAR, TAF).

turimą stotys yra geltonos ir raudonos taškus žemėlapyje.

Perkelti pele per norėdami pamatyti stoties vardą.

Tada spustelėkite, norėdami matyti oro stebėjimo ir prognozės.

Norėdami pakeisti žemėlapį: spustelėkite ant žalios mygtukų su juodo kryžiaus žemyn,; žalią mygtuką su brūkšneliu, jei norite nutolinti; arba žalių rodyklių gretimoms žemėlapius.


METAR-TAF: